createdAt,value
2023-02-02T00:02:08.562Z,6.60
2023-02-02T00:04:36.525Z,6.60
2023-02-02T00:07:05.190Z,6.60
2023-02-02T00:09:32.829Z,6.60
2023-02-02T00:12:00.978Z,6.60
2023-02-02T00:14:27.858Z,6.50
2023-02-02T00:16:56.292Z,6.50
2023-02-02T00:19:30.303Z,6.40
2023-02-02T00:21:57.551Z,6.40
2023-02-02T00:24:24.442Z,6.40
2023-02-02T00:26:56.741Z,6.40
2023-02-02T00:29:28.781Z,6.40
2023-02-02T00:31:55.842Z,6.40
2023-02-02T00:34:23.562Z,6.40
2023-02-02T00:36:51.026Z,6.40
2023-02-02T00:39:20.535Z,6.50
2023-02-02T00:41:47.623Z,6.40
2023-02-02T00:44:33.184Z,6.40
2023-02-02T00:46:59.835Z,6.40
2023-02-02T00:49:26.438Z,6.40
2023-02-02T00:51:53.050Z,6.40
2023-02-02T00:54:19.830Z,6.40
2023-02-02T00:56:47.705Z,6.40
2023-02-02T00:59:14.336Z,6.40
2023-02-02T01:01:40.956Z,6.40
2023-02-02T01:04:07.774Z,6.40
2023-02-02T01:06:34.514Z,6.50
2023-02-02T01:09:01.252Z,6.50
2023-02-02T01:11:28.277Z,6.50
2023-02-02T01:13:54.948Z,6.50
2023-02-02T01:16:22.402Z,6.50
2023-02-02T01:18:49.929Z,6.50
2023-02-02T01:21:16.675Z,6.40
2023-02-02T01:23:43.283Z,6.40
2023-02-02T01:26:11.760Z,6.40
2023-02-02T01:28:39.224Z,6.40
2023-02-02T01:31:12.656Z,6.50
2023-02-02T01:33:40.060Z,6.50
2023-02-02T01:36:10.477Z,6.50
2023-02-02T01:38:37.456Z,6.50
2023-02-02T01:41:04.680Z,6.40
2023-02-02T01:43:55.023Z,6.30
2023-02-02T01:46:29.669Z,6.40
2023-02-02T01:49:05.459Z,6.30
2023-02-02T01:51:55.913Z,6.20
2023-02-02T01:54:30.102Z,6.20
2023-02-02T01:57:02.529Z,6.20
2023-02-02T01:59:30.848Z,6.10
2023-02-02T02:01:59.104Z,6.10
2023-02-02T02:06:55.437Z,6.10
2023-02-02T02:09:22.067Z,6.10
2023-02-02T02:11:48.992Z,6.10
2023-02-02T02:14:35.395Z,6.10
2023-02-02T02:17:21.979Z,6.10
2023-02-02T02:20:26.152Z,6.10
2023-02-02T02:23:22.968Z,6.10
2023-02-02T02:26:33.713Z,6.10
2023-02-02T02:29:35.552Z,6.10
2023-02-02T02:37:18.621Z,6.00
2023-02-02T03:17:53.658Z,6.00
2023-02-02T03:20:21.297Z,6.00
2023-02-02T03:22:47.971Z,6.00
2023-02-02T03:25:15.955Z,6.00
2023-02-02T03:27:42.703Z,6.00
2023-02-02T03:30:12.270Z,6.00
2023-02-02T03:32:39.633Z,6.00
2023-02-02T03:44:56.679Z,6.20
2023-02-02T03:47:23.314Z,6.10
2023-02-02T03:49:49.886Z,6.10
2023-02-02T03:52:16.444Z,5.90
2023-02-02T03:54:43.010Z,6.00
2023-02-02T03:57:09.588Z,6.00
2023-02-02T03:59:36.191Z,6.00
2023-02-02T04:02:03.027Z,6.00
2023-02-02T04:04:29.664Z,6.00
2023-02-02T04:06:56.253Z,6.00
2023-02-02T04:09:22.814Z,6.00
2023-02-02T04:11:49.391Z,6.00
2023-02-02T04:14:16.168Z,5.90
2023-02-02T04:16:42.762Z,6.00
2023-02-02T04:19:09.637Z,6.00
2023-02-02T04:21:36.276Z,6.00
2023-02-02T04:24:02.872Z,5.90
2023-02-02T04:26:29.602Z,5.90
2023-02-02T04:28:56.263Z,5.80
2023-02-02T04:31:22.975Z,6.00
2023-02-02T04:33:49.646Z,6.00
2023-02-02T04:36:16.265Z,6.00
2023-02-02T04:38:42.888Z,5.90
2023-02-02T04:41:11.909Z,5.90
2023-02-02T04:43:38.914Z,6.00
2023-02-02T04:46:05.561Z,5.90
2023-02-02T04:48:33.520Z,5.90
2023-02-02T04:51:07.833Z,5.90
2023-02-02T04:53:34.557Z,5.90
2023-02-02T05:28:21.093Z,6.00
2023-02-02T05:30:47.877Z,6.00
2023-02-02T05:33:15.183Z,6.00
2023-02-02T05:35:42.017Z,5.90
2023-02-02T05:38:08.607Z,5.90
2023-02-02T05:43:02.226Z,6.10
2023-02-02T05:45:28.839Z,6.10
2023-02-02T05:47:55.805Z,5.90
2023-02-02T05:50:22.876Z,5.90
2023-02-02T05:52:49.872Z,5.90
2023-02-02T05:55:17.908Z,6.00
2023-02-02T05:57:44.640Z,6.00
2023-02-02T06:00:12.196Z,5.90
2023-02-02T06:02:38.892Z,6.00
2023-02-02T06:05:05.916Z,6.00
2023-02-02T06:07:32.608Z,5.80
2023-02-02T06:09:59.797Z,5.90
2023-02-02T06:12:26.398Z,5.90
2023-02-02T06:14:52.979Z,5.90
2023-02-02T06:17:19.557Z,5.90
2023-02-02T06:19:46.178Z,5.90
2023-02-02T06:22:12.765Z,5.90
2023-02-02T06:24:39.361Z,5.90
2023-02-02T06:27:06.002Z,6.00
2023-02-02T06:29:32.598Z,5.90
2023-02-02T06:31:59.230Z,5.90
2023-02-02T06:34:25.904Z,5.90
2023-02-02T06:36:52.481Z,5.90
2023-02-02T06:39:19.048Z,5.90
2023-02-02T06:41:46.657Z,5.90
2023-02-02T06:44:15.225Z,5.90
2023-02-02T06:46:42.566Z,5.90
2023-02-02T06:49:09.155Z,5.90
2023-02-02T06:51:35.845Z,5.90
2023-02-02T06:54:03.820Z,5.90
2023-02-02T06:56:30.508Z,5.90
2023-02-02T06:58:57.126Z,5.90
2023-02-02T07:01:23.796Z,5.90
2023-02-02T07:03:51.216Z,5.90
2023-02-02T07:06:23.635Z,5.90
2023-02-02T07:08:59.356Z,6.00
2023-02-02T07:11:31.109Z,6.00
2023-02-02T07:13:58.156Z,5.90
2023-02-02T07:16:24.885Z,6.00
2023-02-02T07:18:51.494Z,6.00
2023-02-02T07:21:22.807Z,6.10
2023-02-02T07:23:50.268Z,6.00
2023-02-02T07:26:19.116Z,6.10
2023-02-02T07:28:46.458Z,6.10
2023-02-02T07:31:22.042Z,6.10
2023-02-02T07:33:49.628Z,6.10
2023-02-02T07:36:18.662Z,6.10
2023-02-02T07:41:14.139Z,6.20
2023-02-02T07:43:40.920Z,6.20
2023-02-02T07:46:09.974Z,6.20
2023-02-02T08:11:15.715Z,6.30
2023-02-02T08:13:43.362Z,6.30
2023-02-02T08:16:11.407Z,6.30
2023-02-02T08:18:38.743Z,6.30
2023-02-02T08:21:08.777Z,6.30
2023-02-02T08:23:36.930Z,6.30
2023-02-02T08:26:22.219Z,6.30
2023-02-02T08:33:50.525Z,6.40
2023-02-02T08:36:19.634Z,6.30
2023-02-02T08:38:46.566Z,6.30
2023-02-02T08:41:15.762Z,6.30
2023-02-02T08:43:42.731Z,6.40
2023-02-02T08:46:14.865Z,6.40
2023-02-02T08:48:41.589Z,6.50
2023-02-02T08:51:10.937Z,6.30
2023-02-02T08:53:37.828Z,6.40
2023-02-02T09:01:06.974Z,5.60
2023-02-02T09:06:06.054Z,6.30
2023-02-02T09:08:33.455Z,6.40
2023-02-02T09:11:13.231Z,6.40
2023-02-02T09:13:41.190Z,6.20
2023-02-02T09:16:10.532Z,6.40
2023-02-02T09:21:07.357Z,6.40
2023-02-02T09:23:36.103Z,6.40
2023-02-02T09:26:17.849Z,6.40
2023-02-02T09:31:14.719Z,6.40
2023-02-02T09:33:42.347Z,6.40
2023-02-02T09:36:12.053Z,6.40
2023-02-02T09:38:39.493Z,6.40
2023-02-02T09:41:22.557Z,6.40
2023-02-02T09:43:55.091Z,6.30
2023-02-02T09:46:56.111Z,6.40
2023-02-02T09:49:31.474Z,6.40
2023-02-02T09:52:05.348Z,6.40
2023-02-02T09:54:46.615Z,6.40
2023-02-02T09:57:23.788Z,6.40
2023-02-02T09:59:53.081Z,6.40
2023-02-02T10:02:27.191Z,6.40
2023-02-02T10:07:39.224Z,6.40
2023-02-02T10:10:21.271Z,6.40
2023-02-02T10:15:54.981Z,6.50
2023-02-02T10:18:33.204Z,6.50
2023-02-02T10:21:04.073Z,6.50
2023-02-02T10:23:40.116Z,6.50
2023-02-02T10:26:32.784Z,6.50
2023-02-02T10:29:19.121Z,6.50
2023-02-02T10:31:58.275Z,6.60
2023-02-02T10:34:28.851Z,6.60
2023-02-02T10:37:03.172Z,6.50
2023-02-02T10:42:29.237Z,6.70
2023-02-02T10:45:25.417Z,6.60
2023-02-02T10:47:52.040Z,6.60
2023-02-02T10:50:20.526Z,6.70
2023-02-02T10:52:53.123Z,6.70
2023-02-02T10:55:32.699Z,6.70
2023-02-02T10:57:59.266Z,6.70
2023-02-02T11:00:39.125Z,6.70
2023-02-02T11:03:08.444Z,6.60
2023-02-02T11:05:53.676Z,6.60
2023-02-02T11:08:27.743Z,6.70
2023-02-02T11:10:55.869Z,6.70
2023-02-02T11:13:30.532Z,6.80
2023-02-02T11:16:38.711Z,6.70
2023-02-02T11:19:24.185Z,7.40
2023-02-02T11:21:54.053Z,6.70
2023-02-02T11:24:30.801Z,6.70
2023-02-02T11:27:04.450Z,6.70
2023-02-02T11:29:38.629Z,6.70
2023-02-02T11:32:23.460Z,6.80
2023-02-02T11:35:19.545Z,6.70
2023-02-02T11:38:17.455Z,6.70
2023-02-02T11:40:46.175Z,6.80
2023-02-02T11:43:20.135Z,6.90
2023-02-02T11:45:54.774Z,6.80
2023-02-02T11:48:24.539Z,6.90
2023-02-02T11:50:57.382Z,6.90
2023-02-02T11:53:26.618Z,7.00
2023-02-02T11:55:54.976Z,6.90
2023-02-02T11:58:29.415Z,7.00
2023-02-02T12:01:02.071Z,7.00
2023-02-02T12:03:39.844Z,7.10
2023-02-02T12:06:24.826Z,7.10
2023-02-02T12:08:56.308Z,7.20
2023-02-02T12:11:35.042Z,7.20
2023-02-02T12:14:23.192Z,7.20
2023-02-02T12:17:09.794Z,7.20
2023-02-02T12:19:58.121Z,7.20
2023-02-02T12:22:50.022Z,7.20
2023-02-02T12:25:41.562Z,7.10
2023-02-02T12:28:33.808Z,7.10
2023-02-02T12:31:06.166Z,7.10
2023-02-02T12:33:46.469Z,7.20
2023-02-02T12:36:44.613Z,7.20
2023-02-02T12:39:31.980Z,7.30
2023-02-02T12:42:36.320Z,7.30
2023-02-02T12:45:05.891Z,7.30
2023-02-02T12:47:53.327Z,7.40
2023-02-02T12:50:26.330Z,7.40
2023-02-02T12:53:07.049Z,7.40
2023-02-02T12:55:38.417Z,7.40
2023-02-02T12:58:20.603Z,7.40
2023-02-02T13:01:07.039Z,7.40
2023-02-02T13:04:02.487Z,7.50
2023-02-02T13:07:06.914Z,7.50
2023-02-02T13:09:47.185Z,7.50
2023-02-02T13:12:18.355Z,7.50
2023-02-02T13:14:57.606Z,7.50
2023-02-02T13:17:32.418Z,7.50
2023-02-02T13:20:04.630Z,7.40
2023-02-02T13:22:40.285Z,7.40
2023-02-02T13:25:21.927Z,7.40
2023-02-02T13:27:49.789Z,7.40
2023-02-02T13:30:34.059Z,7.40
2023-02-02T13:33:27.529Z,7.40
2023-02-02T13:36:18.083Z,7.40
2023-02-02T13:38:45.912Z,7.50
2023-02-02T13:41:13.482Z,7.50
2023-02-02T13:44:05.975Z,7.50
2023-02-02T13:47:00.343Z,7.50
2023-02-02T13:49:32.591Z,7.50
2023-02-02T13:52:30.046Z,7.50
2023-02-02T13:55:28.302Z,7.50
2023-02-02T13:58:14.203Z,7.60
2023-02-02T14:00:47.599Z,7.60
2023-02-02T14:03:56.922Z,7.60
2023-02-02T14:06:26.239Z,7.60
2023-02-02T14:08:54.397Z,7.60
2023-02-02T14:11:51.035Z,7.60
2023-02-02T14:14:33.272Z,7.70
2023-02-02T14:17:04.028Z,7.80
2023-02-02T14:19:41.944Z,7.70
2023-02-02T14:22:12.080Z,7.90
2023-02-02T14:24:43.990Z,7.70
2023-02-02T14:27:10.698Z,7.60
2023-02-02T14:29:59.215Z,7.70
2023-02-02T14:32:28.608Z,7.70
2023-02-02T14:35:20.283Z,7.70
2023-02-02T14:37:54.867Z,7.70
2023-02-02T14:40:30.646Z,7.60
2023-02-02T14:43:38.509Z,7.70
2023-02-02T14:46:15.474Z,7.70
2023-02-02T14:49:02.395Z,7.60
2023-02-02T14:51:32.502Z,7.60
2023-02-02T14:54:02.472Z,7.60
2023-02-02T14:57:25.849Z,7.60
2023-02-02T14:59:55.197Z,7.60
2023-02-02T15:02:34.956Z,7.50
2023-02-02T15:05:38.852Z,7.50
2023-02-02T15:08:22.438Z,7.60
2023-02-02T15:10:54.865Z,7.60
2023-02-02T15:13:25.180Z,7.60
2023-02-02T15:16:04.754Z,7.60
2023-02-02T15:18:39.148Z,7.60
2023-02-02T15:21:07.873Z,7.60
2023-02-02T15:23:41.173Z,7.50
2023-02-02T15:26:24.871Z,7.60
2023-02-02T15:28:58.016Z,7.50
2023-02-02T15:31:42.008Z,7.60
2023-02-02T15:34:20.673Z,7.70
2023-02-02T15:36:51.594Z,7.60
2023-02-02T15:39:31.557Z,7.60
2023-02-02T15:42:20.846Z,7.60
2023-02-02T15:44:47.456Z,7.60
2023-02-02T15:47:22.030Z,7.60
2023-02-02T15:49:48.952Z,7.60
2023-02-02T15:52:21.653Z,7.60
2023-02-02T15:54:54.115Z,7.60
2023-02-02T15:57:44.688Z,7.70
2023-02-02T16:00:32.784Z,7.70
2023-02-02T16:03:12.708Z,7.60
2023-02-02T16:05:48.537Z,7.60
2023-02-02T16:08:19.628Z,7.50
2023-02-02T16:10:49.361Z,7.50
2023-02-02T16:13:23.792Z,7.50
2023-02-02T16:16:09.263Z,7.50
2023-02-02T16:18:36.302Z,7.50
2023-02-02T16:21:09.698Z,7.50
2023-02-02T16:23:38.221Z,7.50
2023-02-02T16:26:06.525Z,7.50
2023-02-02T16:28:34.339Z,7.50
2023-02-02T16:31:02.162Z,7.60
2023-02-02T16:33:29.987Z,7.60
2023-02-02T16:35:57.044Z,7.60
2023-02-02T16:38:34.419Z,7.60
2023-02-02T16:41:09.612Z,7.50
2023-02-02T16:43:41.087Z,7.50
2023-02-02T16:46:18.053Z,7.50
2023-02-02T16:48:59.876Z,7.40
2023-02-02T16:51:28.304Z,7.40
2023-02-02T16:54:18.459Z,7.40
2023-02-02T16:56:48.542Z,7.30
2023-02-02T16:59:33.857Z,7.40
2023-02-02T17:02:24.287Z,7.40
2023-02-02T17:05:00.208Z,7.40
2023-02-02T17:07:28.279Z,7.50
2023-02-02T17:10:20.785Z,7.40
2023-02-02T17:12:47.659Z,7.40
2023-02-02T17:15:17.314Z,7.50
2023-02-02T17:17:44.823Z,7.40
2023-02-02T17:20:12.670Z,7.40
2023-02-02T17:22:45.665Z,7.50
2023-02-02T17:25:27.562Z,7.40
2023-02-02T17:27:55.636Z,7.40
2023-02-02T17:30:22.511Z,7.40
2023-02-02T17:32:49.078Z,7.60
2023-02-02T17:35:21.963Z,7.50
2023-02-02T17:37:49.719Z,7.60
2023-02-02T17:40:18.277Z,7.60
2023-02-02T17:42:47.128Z,7.50
2023-02-02T17:45:28.516Z,7.50
2023-02-02T17:47:55.220Z,7.60
2023-02-02T17:50:21.858Z,7.50
2023-02-02T17:52:49.674Z,7.60
2023-02-02T17:55:27.058Z,7.60
2023-02-02T17:57:54.145Z,7.60
2023-02-02T18:00:23.755Z,7.60
2023-02-02T18:02:55.881Z,7.60
2023-02-02T18:05:23.887Z,7.60
2023-02-02T18:07:50.785Z,7.60
2023-02-02T18:10:19.221Z,7.60
2023-02-02T18:12:46.033Z,7.60
2023-02-02T18:15:14.653Z,7.60
2023-02-02T18:17:41.987Z,7.60
2023-02-02T18:20:10.379Z,7.60
2023-02-02T18:22:37.557Z,7.60
2023-02-02T18:25:05.021Z,7.60
2023-02-02T18:27:31.644Z,7.50
2023-02-02T18:29:58.281Z,7.60
2023-02-02T18:32:25.176Z,7.60
2023-02-02T18:34:55.457Z,7.60
2023-02-02T18:37:24.092Z,7.60
2023-02-02T18:39:51.796Z,7.60
2023-02-02T18:42:18.444Z,7.60
2023-02-02T18:44:45.135Z,7.60
2023-02-02T18:47:11.751Z,7.60
2023-02-02T18:49:38.499Z,7.60
2023-02-02T18:52:05.294Z,7.60
2023-02-02T18:54:33.813Z,7.60
2023-02-02T18:57:00.440Z,7.60
2023-02-02T18:59:28.395Z,7.40
2023-02-02T19:01:55.518Z,7.30
2023-02-02T19:04:22.171Z,7.30
2023-02-02T19:07:07.363Z,7.20
2023-02-02T19:09:34.687Z,7.20
2023-02-02T19:12:01.767Z,7.10
2023-02-02T19:14:36.702Z,7.10
2023-02-02T19:17:19.540Z,7.10
2023-02-02T19:19:46.195Z,7.10
2023-02-02T19:22:19.939Z,7.10
2023-02-02T19:24:46.958Z,7.00
2023-02-02T19:27:19.723Z,7.00
2023-02-02T19:29:50.822Z,6.90
2023-02-02T19:32:21.702Z,6.90
2023-02-02T19:34:51.598Z,6.90
2023-02-02T19:37:24.617Z,6.90
2023-02-02T19:40:09.273Z,6.90
2023-02-02T19:42:45.072Z,6.90
2023-02-02T19:45:27.193Z,6.80
2023-02-02T19:47:55.835Z,6.80
2023-02-02T19:50:25.066Z,6.80
2023-02-02T19:52:53.707Z,6.80
2023-02-02T19:55:24.702Z,6.70
2023-02-02T19:57:52.765Z,6.80
2023-02-02T20:00:26.770Z,6.70
2023-02-02T20:03:01.193Z,6.70
2023-02-02T20:05:48.520Z,6.80
2023-02-02T20:08:25.732Z,6.80
2023-02-02T20:10:55.518Z,6.80
2023-02-02T20:13:25.240Z,6.80
2023-02-02T20:16:03.330Z,6.80
2023-02-02T20:18:50.768Z,6.90
2023-02-02T20:21:43.053Z,6.90
2023-02-02T20:24:27.313Z,6.90
2023-02-02T20:26:57.589Z,7.00
2023-02-02T20:29:27.925Z,7.00
2023-02-02T20:31:58.431Z,7.00
2023-02-02T20:34:33.570Z,7.00
2023-02-02T20:37:05.389Z,7.10
2023-02-02T20:39:38.515Z,7.10
2023-02-02T20:42:05.573Z,7.20
2023-02-02T20:44:34.210Z,7.20
2023-02-02T20:47:02.299Z,7.30
2023-02-02T20:49:31.543Z,7.30
2023-02-02T20:52:00.666Z,7.30
2023-02-02T20:54:27.683Z,7.30
2023-02-02T20:56:54.588Z,7.30
2023-02-02T20:59:21.452Z,7.30
2023-02-02T21:01:52.457Z,7.30
2023-02-02T21:04:20.761Z,7.30
2023-02-02T21:06:48.696Z,7.30
2023-02-02T21:09:16.168Z,7.30
2023-02-02T21:11:43.246Z,7.30
2023-02-02T21:14:10.127Z,7.30
2023-02-02T21:16:36.863Z,7.30
2023-02-02T21:19:03.707Z,7.40
2023-02-02T21:21:30.442Z,7.40
2023-02-02T21:23:57.269Z,7.40
2023-02-02T21:26:27.195Z,7.40
2023-02-02T21:28:55.216Z,7.50
2023-02-02T21:31:21.971Z,8.20
2023-02-02T21:33:50.608Z,7.40
2023-02-02T21:36:28.024Z,7.40
2023-02-02T21:39:01.528Z,7.50
2023-02-02T21:41:31.986Z,7.50
2023-02-02T21:43:58.989Z,7.40
2023-02-02T21:46:35.161Z,7.40
2023-02-02T21:49:02.112Z,7.50
2023-02-02T21:51:33.864Z,7.40
2023-02-02T21:54:26.771Z,7.40
2023-02-02T21:56:54.727Z,7.50
2023-02-02T21:59:23.763Z,7.50
2023-02-02T22:01:52.022Z,7.50
2023-02-02T22:04:20.724Z,7.60
2023-02-02T22:06:52.662Z,7.50
2023-02-02T22:09:22.779Z,7.50
2023-02-02T22:11:59.094Z,7.50
2023-02-02T22:14:39.185Z,7.50
2023-02-02T22:17:22.230Z,7.50
2023-02-02T22:20:10.793Z,7.50
2023-02-02T22:22:40.459Z,7.50
2023-02-02T22:25:31.358Z,7.50
2023-02-02T22:28:01.376Z,7.50
2023-02-02T22:30:29.596Z,7.50
2023-02-02T22:32:56.466Z,7.50
2023-02-02T22:35:23.091Z,7.60
2023-02-02T22:37:49.882Z,7.50
2023-02-02T22:40:16.685Z,7.50
2023-02-02T22:42:43.897Z,7.50
2023-02-02T22:45:10.836Z,7.40
2023-02-02T22:47:37.506Z,7.40
2023-02-02T22:50:04.442Z,7.40
2023-02-02T22:52:31.091Z,7.30
2023-02-02T22:54:57.690Z,7.30
2023-02-02T22:57:24.279Z,7.30
2023-02-02T22:59:50.915Z,7.30
2023-02-02T23:02:17.503Z,7.30
2023-02-02T23:04:44.084Z,7.30
2023-02-02T23:07:10.666Z,7.20
2023-02-02T23:09:37.245Z,7.10
2023-02-02T23:12:04.033Z,7.20
2023-02-02T23:14:30.775Z,7.10
2023-02-02T23:16:57.445Z,7.10
2023-02-02T23:19:24.085Z,7.10
2023-02-02T23:21:50.762Z,7.10
2023-02-02T23:24:17.334Z,7.00
2023-02-02T23:26:43.915Z,7.10
2023-02-02T23:29:10.512Z,7.20
2023-02-02T23:31:37.208Z,7.20
2023-02-02T23:34:03.860Z,7.20
2023-02-02T23:36:30.490Z,7.10
2023-02-02T23:38:57.076Z,7.10
2023-02-02T23:41:23.722Z,7.00
2023-02-02T23:43:50.591Z,7.00
2023-02-02T23:46:18.059Z,7.00
2023-02-02T23:48:45.187Z,7.00
2023-02-02T23:51:12.850Z,7.00
2023-02-02T23:53:39.855Z,7.00
2023-02-02T23:56:06.672Z,7.00
2023-02-02T23:58:33.275Z,7.00
